Time;durP1;ratioP1;P1;durP2;ratioP2;P2;SDS_P1;SDS_P2;PMS_P1;PMS_P2;Temp;Humidity;BMP_temperature;BMP_pressure;BME280_temperature;BME280_humidity;BME280_pressure;Samples;Min_cycle;Max_cycle;Signal;HPM_P1;HPM_P2
2023/03/29 00:01:07;;;;;;;7.18;4.80;;;;;;;4.55;96.88;101478.13;6199228;23;20038;-89
2023/03/29 00:03:34;;;;;;;7.55;4.75;;;;;;;4.65;96.57;101501.72;6225288;23;20008;-89
2023/03/29 00:06:01;;;;;;;8.30;4.93;;;;;;;4.37;96.97;101453.81;6224664;23;20004;-88
2023/03/29 00:08:32;;;;;;;5.28;4.60;;;;;;;4.43;96.92;101463.38;6197733;23;20001;-88
2023/03/29 00:10:59;;;;;;;9.32;5.07;;;;;;;4.36;97.46;101449.44;6223559;23;20024;-89
2023/03/29 00:13:27;;;;;;;7.25;5.00;;;;;;;4.55;96.99;101470.22;6223823;22;20067;-90
2023/03/29 00:15:54;;;;;;;6.57;5.18;;;;;;;4.38;97.15;101442.38;6196783;23;20016;-88
2023/03/29 00:18:23;;;;;;;8.02;5.80;;;;;;;4.49;97.60;101464.16;6222366;23;20047;-89
2023/03/29 00:20:59;;;;;;;7.28;5.18;;;;;;;4.70;97.74;101483.16;6223086;23;20005;-89
2023/03/29 00:23:25;;;;;;;7.10;5.57;;;;;;;4.62;98.41;101469.25;6195269;23;20019;-89
2023/03/29 00:25:54;;;;;;;5.55;4.43;;;;;;;4.38;97.47;101434.44;6195776;23;20098;-89
2023/03/29 00:28:19;;;;;;;5.65;4.72;;;;;;;4.56;97.34;101464.09;6193393;23;20064;-89
2023/03/29 00:30:45;;;;;;;6.90;5.35;;;;;;;4.62;99.20;101463.97;6219337;23;20027;-89
2023/03/29 00:33:11;;;;;;;6.90;5.05;;;;;;;4.45;99.77;101441.38;6220201;23;20800;-88
2023/03/29 00:35:38;;;;;;;6.63;4.95;;;;;;;4.43;99.19;101444.91;6195097;23;20004;-88
2023/03/29 00:38:05;;;;;;;7.43;5.03;;;;;;;4.45;99.81;101451.91;6221703;23;20321;-89
2023/03/29 00:40:31;;;;;;;6.63;4.97;;;;;;;4.55;100.00;101467.59;6195319;23;20012;-89
2023/03/29 00:42:57;;;;;;;6.30;5.20;;;;;;;4.53;100.00;101472.03;6221679;23;20016;-88
2023/03/29 00:45:25;;;;;;;6.45;4.85;;;;;;;4.53;100.00;101472.03;6199146;23;20008;-86
2023/03/29 00:47:55;;;;;;;7.35;5.40;;;;;;;4.41;100.00;101447.59;6239492;23;20061;-90
2023/03/29 00:50:32;;;;;;;6.90;4.80;;;;;;;4.36;100.00;101441.53;6211215;23;20013;-89
2023/03/29 00:53:14;;;;;;;6.07;4.50;;;;;;;4.48;100.00;101464.19;6239124;23;20009;-88
2023/03/29 00:55:39;;;;;;;6.40;5.40;;;;;;;4.50;100.00;101460.63;6213128;23;20005;-88
2023/03/29 00:58:08;;;;;;;6.63;5.43;;;;;;;4.40;100.00;101445.00;6239346;23;19997;-88
2023/03/29 01:00:37;;;;;;;7.05;5.18;;;;;;;4.50;100.00;101457.13;6206121;23;20005;-89
2023/03/29 01:03:12;;;;;;;7.18;5.57;;;;;;;4.45;100.00;101451.91;6221241;23;20011;-89
2023/03/29 01:05:42;;;;;;;5.47;4.15;;;;;;;4.53;100.00;101453.56;6222762;23;20331;-89
2023/03/29 01:08:17;;;;;;;4.30;3.90;;;;;;;4.49;100.00;101445.72;6223415;23;20001;-90
2023/03/29 01:10:57;;;;;;;7.03;4.47;;;;;;;4.52;100.00;101451.84;6223672;23;20012;-89
2023/03/29 01:13:40;;;;;;;7.07;4.07;;;;;;;4.46;100.00;101426.44;6226304;22;20012;-88
2023/03/29 01:16:09;;;;;;;6.20;3.90;;;;;;;4.53;100.00;101443.03;6221696;23;20016;-89
2023/03/29 01:18:34;;;;;;;5.93;3.85;;;;;;;4.56;100.00;101440.34;6194403;23;20072;-88
2023/03/29 01:21:19;;;;;;;5.22;3.97;;;;;;;4.59;100.00;101443.78;6193560;23;20001;-87
2023/03/29 01:23:49;;;;;;;7.60;4.47;;;;;;;4.64;100.00;101448.97;6220007;23;20012;-88
2023/03/29 01:26:27;;;;;;;7.63;4.38;;;;;;;4.58;100.00;101431.50;6218322;23;20005;-87
2023/03/29 01:29:02;;;;;;;5.28;4.32;;;;;;;4.69;100.00;101432.19;6188742;23;20013;-89
2023/03/29 01:31:31;;;;;;;6.05;3.83;;;;;;;4.66;100.00;101426.97;6189309;23;20011;-88
2023/03/29 01:34:09;;;;;;;5.97;4.10;;;;;;;4.65;100.00;101425.25;6189909;23;20013;-87
2023/03/29 01:36:42;;;;;;;5.25;3.97;;;;;;;4.63;100.00;101407.69;6215927;23;20008;-87
2023/03/29 01:39:07;;;;;;;4.68;3.53;;;;;;;4.74;100.00;101421.56;6214456;23;20004;-87
2023/03/29 01:41:51;;;;;;;4.82;3.75;;;;;;;4.66;100.00;101392.69;6214730;23;20009;-89
2023/03/29 01:44:44;;;;;;;7.10;4.15;;;;;;;4.84;100.00;101411.72;6189418;23;20426;-88
2023/03/29 01:47:17;;;;;;;5.15;3.85;;;;;;;4.82;100.00;101393.28;6217580;23;20001;-89
2023/03/29 01:50:03;;;;;;;4.45;4.05;;;;;;;4.91;100.00;101401.03;6215586;23;20012;-88
2023/03/29 01:52:44;;;;;;;6.57;3.80;;;;;;;4.94;100.00;101400.97;6192302;23;20043;-88
2023/03/29 01:55:14;;;;;;;7.72;3.78;;;;;;;4.92;100.00;101391.34;6219544;23;20330;-87
2023/03/29 01:57:43;;;;;;;5.30;4.15;;;;;;;4.81;100.00;101364.28;6193575;23;20012;-88
2023/03/29 02:00:14;;;;;;;4.97;3.85;;;;;;;4.99;100.00;101385.94;6220358;23;20027;-90
2023/03/29 02:02:43;;;;;;;6.68;4.20;;;;;;;4.97;100.00;101371.03;6193418;23;20040;-88
2023/03/29 02:05:09;;;;;;;4.65;4.25;;;;;;;5.08;100.00;101384.00;6193582;23;20094;-88
2023/03/29 02:07:37;;;;;;;8.25;4.85;;;;;;;5.09;100.00;101385.75;6194108;23;20005;-89
2023/03/29 02:10:05;;;;;;;8.88;4.97;;;;;;;5.08;100.00;101376.97;6192566;23;20055;-89
2023/03/29 02:12:31;;;;;;;6.63;4.38;;;;;;;5.10;100.00;101383.09;6219340;23;20009;-89
2023/03/29 02:14:57;;;;;;;6.68;4.50;;;;;;;4.98;100.00;101357.81;6219634;23;20016;-90
2023/03/29 02:17:26;;;;;;;6.05;4.35;;;;;;;5.05;99.65;101363.81;6219816;23;20131;-88
2023/03/29 02:20:13;;;;;;;6.20;4.68;;;;;;;5.15;99.76;101381.22;6218183;23;20074;-88
2023/03/29 02:23:00;;;;;;;6.88;4.40;;;;;;;5.17;100.00;101365.34;6218246;23;20018;-88
2023/03/29 02:25:27;;;;;;;6.28;4.28;;;;;;;5.15;99.90;101357.47;6218348;23;20036;-89
2023/03/29 02:27:52;;;;;;;4.00;3.60;;;;;;;5.03;99.82;101336.63;6213269;23;20067;-86
2023/03/29 02:30:20;;;;;;;4.05;3.15;;;;;;;5.13;100.00;101353.13;6209609;23;20004;-88
2023/03/29 02:33:07;;;;;;;6.43;3.45;;;;;;;5.15;98.26;101360.13;6212302;23;20035;-89
2023/03/29 02:35:38;;;;;;;5.72;3.65;;;;;;;5.08;98.19;101337.38;6209138;23;20075;-89
2023/03/29 02:38:06;;;;;;;4.93;3.40;;;;;;;5.08;98.04;101333.88;6185021;23;20364;-90
2023/03/29 02:40:33;;;;;;;4.57;3.58;;;;;;;5.11;98.77;101336.47;6182618;23;20426;-89
2023/03/29 02:43:00;;;;;;;4.25;3.25;;;;;;;5.19;99.89;101339.81;6180773;23;20543;-88
2023/03/29 02:45:27;;;;;;;5.30;3.42;;;;;;;5.10;97.98;101324.16;6182245;23;20008;-88
2023/03/29 02:48:00;;;;;;;5.15;3.47;;;;;;;5.18;97.64;101340.69;6209157;23;20008;-88
2023/03/29 02:50:32;;;;;;;5.45;3.40;;;;;;;5.19;97.34;101334.53;6183042;23;20040;-88
2023/03/29 02:53:03;;;;;;;4.88;3.47;;;;;;;5.15;98.57;101327.59;6210335;23;20032;-88
2023/03/29 02:55:33;;;;;;;4.78;3.38;;;;;;;5.23;98.52;101325.66;6216919;23;20369;-88
2023/03/29 02:58:07;;;;;;;3.67;3.15;;;;;;;5.20;99.06;101321.31;6221101;23;20366;-88
2023/03/29 03:00:38;;;;;;;5.47;3.90;;;;;;;5.25;97.77;101329.13;6219963;23;20004;-88
2023/03/29 03:03:06;;;;;;;5.28;4.20;;;;;;;5.21;97.34;101317.75;6197374;23;20008;-88
2023/03/29 03:05:31;;;;;;;6.43;4.25;;;;;;;5.26;97.74;101315.00;6222437;23;20011;-88
2023/03/29 03:07:57;;;;;;;5.28;4.22;;;;;;;5.18;97.97;101298.47;6221656;23;20419;-88
2023/03/29 03:10:22;;;;;;;4.40;4.00;;;;;;;5.29;97.96;101319.38;6224014;23;20019;-89
2023/03/29 03:12:47;;;;;;;5.63;4.45;;;;;;;5.29;96.87;101314.97;6235962;22;20000;-88
2023/03/29 03:15:13;;;;;;;4.90;4.25;;;;;;;5.26;96.80;101312.38;6238811;23;20007;-88
2023/03/29 03:17:38;;;;;;;6.30;4.50;;;;;;;5.24;95.94;101298.34;6212262;23;19989;-89
2023/03/29 03:20:11;;;;;;;5.47;4.55;;;;;;;5.19;96.47;101295.81;6240112;23;19989;-90
2023/03/29 03:22:36;;;;;;;5.40;4.68;;;;;;;5.30;96.78;101305.25;6240286;23;19996;-90
2023/03/29 03:25:02;;;;;;;4.90;4.40;;;;;;;5.06;95.80;101262.69;6214760;23;20072;-88
2023/03/29 03:27:27;;;;;;;4.28;3.88;;;;;;;5.18;95.36;101280.00;6214098;23;19999;-89
2023/03/29 03:29:53;;;;;;;4.53;3.92;;;;;;;5.32;95.59;101303.47;6205229;23;20008;-89
2023/03/29 03:32:18;;;;;;;4.50;3.67;;;;;;;5.14;96.02;101270.41;6227741;23;20024;-90
2023/03/29 03:34:43;;;;;;;4.28;3.35;;;;;;;5.26;95.16;101293.91;6228220;23;20001;-90
2023/03/29 03:37:10;;;;;;;4.90;3.45;;;;;;;5.29;95.50;101303.53;6200104;23;20000;-89
2023/03/29 03:39:36;;;;;;;3.97;3.13;;;;;;;5.10;95.50;101280.19;6199740;23;20066;-90
2023/03/29 03:42:01;;;;;;;5.50;3.72;;;;;;;5.25;95.15;101298.31;6189016;23;20473;-88
2023/03/29 03:44:27;;;;;;;5.38;3.88;;;;;;;5.22;95.40;101289.59;6213825;23;20008;-87
2023/03/29 03:46:52;;;;;;;5.40;3.97;;;;;;;5.17;95.30;101283.56;6188407;23;20418;-90
2023/03/29 03:49:18;;;;;;;6.63;3.80;;;;;;;5.23;94.74;101288.72;6214548;23;20051;-89
2023/03/29 03:51:44;;;;;;;5.18;3.42;;;;;;;5.34;94.45;101299.03;6213006;23;20004;-88
2023/03/29 03:54:10;;;;;;;5.22;3.75;;;;;;;5.26;94.39;101288.63;6188435;23;20036;-89
2023/03/29 03:56:36;;;;;;;4.32;3.47;;;;;;;5.32;93.96;101293.78;6215680;23;20005;-90
2023/03/29 03:59:01;;;;;;;4.00;3.28;;;;;;;5.37;93.52;101304.25;6186030;23;20075;-90
2023/03/29 04:01:27;;;;;;;5.13;3.92;;;;;;;5.32;93.38;101288.50;6212223;23;20083;-89
2023/03/29 04:03:52;;;;;;;5.47;3.13;;;;;;;5.34;92.82;101291.09;6185707;23;20066;-90
2023/03/29 04:06:18;;;;;;;3.97;3.67;;;;;;;5.39;93.24;101294.50;6212171;23;20004;-89
2023/03/29 04:08:43;;;;;;;4.32;2.97;;;;;;;5.27;92.31;101269.28;6211311;23;20009;-89
2023/03/29 04:11:09;;;;;;;6.32;3.67;;;;;;;5.35;92.37;101285.81;6212085;23;20418;-90
2023/03/29 04:13:34;;;;;;;4.35;3.42;;;;;;;5.37;92.96;101291.03;6185123;23;20515;-89
2023/03/29 04:16:00;;;;;;;7.35;3.40;;;;;;;5.33;92.61;101282.31;6211888;23;20427;-90
2023/03/29 04:18:26;;;;;;;3.88;3.53;;;;;;;5.32;92.19;101283.22;6212814;23;20321;-89
2023/03/29 04:20:51;;;;;;;5.22;3.38;;;;;;;5.24;92.88;101274.59;6188375;23;20434;-90
2023/03/29 04:23:17;;;;;;;5.53;4.00;;;;;;;5.34;92.44;101280.53;6214473;23;20023;-90
2023/03/29 04:25:42;;;;;;;4.57;4.00;;;;;;;5.37;92.84;101276.06;6187316;23;20015;-90
2023/03/29 04:28:09;;;;;;;4.80;4.00;;;;;;;5.32;93.15;101271.81;6214754;23;20009;-90
2023/03/29 04:30:35;;;;;;;6.50;4.28;;;;;;;5.40;93.61;101267.22;6189690;23;20004;-91
2023/03/29 04:33:00;;;;;;;5.70;4.50;;;;;;;5.41;93.44;101275.09;6215405;23;20019;-90
2023/03/29 04:35:26;;;;;;;6.30;4.22;;;;;;;5.38;94.05;101277.78;6216797;23;20405;-90
2023/03/29 04:37:53;;;;;;;5.22;3.85;;;;;;;5.43;93.67;101282.97;6215641;23;20322;-91
2023/03/29 04:40:19;;;;;;;8.20;4.32;;;;;;;5.46;92.83;101288.19;6215001;23;20011;-91
2023/03/29 04:42:46;;;;;;;4.93;3.30;;;;;;;5.47;92.87;101279.34;6212300;23;20086;-90
2023/03/29 04:45:13;;;;;;;5.82;3.85;;;;;;;5.34;93.86;101262.94;6211076;23;20004;-91
2023/03/29 04:47:42;;;;;;;5.65;3.97;;;;;;;5.43;92.82;101267.13;6210202;23;20035;-91
2023/03/29 04:50:07;;;;;;;7.07;4.28;;;;;;;5.51;92.93;101281.03;6210819;23;20421;-91
2023/03/29 04:52:33;;;;;;;6.63;4.63;;;;;;;5.45;92.67;101267.97;6186168;23;20481;-89
2023/03/29 04:55:04;;;;;;;6.00;3.92;;;;;;;5.47;92.93;101272.31;6210767;23;20004;-91
2023/03/29 04:57:30;;;;;;;6.38;3.88;;;;;;;5.57;92.23;101277.41;6181165;23;20024;-89
2023/03/29 04:59:55;;;;;;;5.18;3.75;;;;;;;5.45;93.03;101241.56;6208923;23;20429;-90
2023/03/29 05:02:21;;;;;;;4.15;3.75;;;;;;;5.62;92.01;101263.16;6208863;23;20359;-90
2023/03/29 05:04:46;;;;;;;6.57;3.90;;;;;;;5.61;92.04;101260.56;6209617;23;20012;-90
2023/03/29 05:07:14;;;;;;;7.00;3.75;;;;;;;5.43;91.96;101228.44;6210664;23;20008;-89
2023/03/29 05:09:40;;;;;;;7.70;4.38;;;;;;;5.63;92.46;101261.41;6210746;23;20005;-89
2023/03/29 05:12:06;;;;;;;6.63;4.28;;;;;;;5.68;91.54;101262.16;6210942;22;20068;-90
2023/03/29 05:14:32;;;;;;;7.55;4.15;;;;;;;5.71;92.09;101264.72;6211816;23;20024;-91
2023/03/29 05:16:57;;;;;;;5.13;3.75;;;;;;;5.74;92.15;101267.28;6209848;23;20042;-90
2023/03/29 05:19:23;;;;;;;5.82;3.85;;;;;;;5.67;91.54;101247.22;6208668;23;20011;-90
2023/03/29 05:21:49;;;;;;;7.05;4.30;;;;;;;5.81;91.85;101260.97;6209805;23;20071;-90
2023/03/29 05:24:16;;;;;;;7.25;4.20;;;;;;;5.66;91.68;101229.63;6183567;23;20023;-90
2023/03/29 05:26:41;;;;;;;9.07;4.72;;;;;;;5.79;91.78;101246.91;6221849;23;19989;-89
2023/03/29 05:29:07;;;;;;;6.40;4.40;;;;;;;5.85;91.93;101260.00;6236221;23;19996;-90
2023/03/29 05:31:33;;;;;;;7.88;4.60;;;;;;;5.83;91.77;101253.84;6237117;23;20003;-90
2023/03/29 05:33:59;;;;;;;7.25;4.47;;;;;;;5.94;91.73;101266.84;6235337;23;20013;-89
2023/03/29 05:36:24;;;;;;;6.30;4.93;;;;;;;5.89;92.02;101258.97;6234751;23;20011;-88
2023/03/29 05:38:49;;;;;;;6.28;4.47;;;;;;;5.94;91.55;101264.22;6235481;23;20112;-91
2023/03/29 05:41:16;;;;;;;8.05;4.85;;;;;;;5.99;91.39;101275.53;6218799;23;20005;-89
2023/03/29 05:43:42;;;;;;;7.25;4.28;;;;;;;6.01;91.04;101278.13;6209486;23;20012;-90
2023/03/29 05:46:07;;;;;;;5.95;3.92;;;;;;;5.96;90.93;101271.16;6210081;23;20023;-90
2023/03/29 05:48:33;;;;;;;5.15;3.97;;;;;;;5.98;90.99;101268.50;6208900;23;20011;-90
2023/03/29 05:50:58;;;;;;;5.43;4.32;;;;;;;5.95;91.12;101263.28;6209336;23;20019;-89
2023/03/29 05:53:26;;;;;;;6.75;4.30;;;;;;;6.10;91.43;101276.09;6209525;23;20015;-89
2023/03/29 05:55:52;;;;;;;4.47;4.03;;;;;;;6.12;91.15;101278.72;6209673;23;20004;-90
2023/03/29 05:58:19;;;;;;;6.43;4.05;;;;;;;6.16;90.69;101281.25;6183088;23;20423;-89
2023/03/29 06:00:48;;;;;;;6.55;4.10;;;;;;;6.19;91.15;101282.94;6211526;23;20058;-87
2023/03/29 06:03:18;;;;;;;5.90;4.05;;;;;;;6.19;91.22;101282.94;6189291;23;20430;-90
2023/03/29 06:05:48;;;;;;;7.20;4.60;;;;;;;6.27;91.43;101280.09;6213958;23;20005;-88
2023/03/29 06:08:15;;;;;;;7.25;4.30;;;;;;;6.32;90.91;101280.84;6185545;23;20004;-90
2023/03/29 06:10:41;;;;;;;7.70;4.45;;;;;;;6.35;91.25;101275.47;6209720;23;20079;-90
2023/03/29 06:13:07;;;;;;;7.25;4.53;;;;;;;6.23;91.10;101245.81;6181435;23;20008;-90
2023/03/29 06:15:33;;;;;;;5.55;4.60;;;;;;;6.39;90.87;101264.75;6208732;23;20094;-90
2023/03/29 06:17:59;;;;;;;6.70;4.72;;;;;;;6.27;91.22;101241.31;6180447;23;20333;-85
2023/03/29 06:20:25;;;;;;;6.40;4.35;;;;;;;6.23;91.37;101231.75;6207817;23;20036;-86
2023/03/29 06:22:51;;;;;;;6.40;4.47;;;;;;;6.32;91.22;101241.19;6207879;23;20334;-87
2023/03/29 06:25:18;;;;;;;6.28;4.30;;;;;;;6.53;91.55;101282.06;6207786;23;20008;-87
2023/03/29 06:27:45;;;;;;;6.88;4.78;;;;;;;6.56;90.93;101277.53;6209456;23;20157;-87
2023/03/29 06:30:11;;;;;;;5.65;3.90;;;;;;;6.62;90.76;101281.81;6181027;23;20001;-87
2023/03/29 06:32:36;;;;;;;6.47;4.38;;;;;;;6.51;90.84;101263.56;6206621;23;20415;-87
2023/03/29 06:35:03;;;;;;;5.60;4.05;;;;;;;6.62;90.83;101276.50;6209522;23;20043;-88
2023/03/29 06:37:30;;;;;;;9.50;4.50;;;;;;;6.60;90.71;101262.44;6213225;23;20036;-88
2023/03/29 06:39:56;;;;;;;5.13;4.00;;;;;;;6.61;90.87;101261.56;6188698;23;20082;-88
2023/03/29 06:42:22;;;;;;;6.82;4.88;;;;;;;6.61;91.66;101261.56;6216123;23;20004;-87
2023/03/29 06:44:48;;;;;;;8.73;4.70;;;;;;;6.66;91.10;101259.66;6215189;23;20004;-87
2023/03/29 06:47:14;;;;;;;7.45;4.85;;;;;;;6.75;91.51;101272.59;6215176;23;20031;-85
2023/03/29 06:49:40;;;;;;;8.48;4.70;;;;;;;6.67;91.93;101249.00;6197475;23;20004;-87
2023/03/29 06:52:05;;;;;;;5.50;4.38;;;;;;;6.84;92.12;101268.84;6194193;23;20443;-89
2023/03/29 06:54:32;;;;;;;7.88;4.13;;;;;;;6.93;91.29;101268.56;6219315;23;20083;-87
2023/03/29 06:56:58;;;;;;;6.00;4.47;;;;;;;7.03;91.56;101270.06;6216216;23;20001;-86
2023/03/29 06:59:24;;;;;;;5.97;4.50;;;;;;;7.05;91.60;101254.09;6215874;23;20007;-86
2023/03/29 07:01:52;;;;;;;6.50;4.90;;;;;;;7.22;91.43;101273.00;6213527;23;20023;-87
2023/03/29 07:04:18;;;;;;;8.30;5.03;;;;;;;7.33;90.78;101273.56;6209257;23;20008;-89
2023/03/29 07:06:47;;;;;;;5.80;4.75;;;;;;;7.32;90.44;101258.59;6208627;23;20330;-87
2023/03/29 07:09:15;;;;;;;6.80;4.68;;;;;;;7.40;90.33;101277.75;6209480;23;20004;-87
2023/03/29 07:11:41;;;;;;;8.50;5.25;;;;;;;7.42;90.63;101269.75;6213623;22;20578;-88
2023/03/29 07:14:06;;;;;;;7.88;4.75;;;;;;;7.48;90.23;101286.34;6238853;23;20351;-86
2023/03/29 07:16:32;;;;;;;7.55;4.45;;;;;;;7.46;89.86;101272.25;6236334;23;20083;-86
2023/03/29 07:18:57;;;;;;;8.80;4.90;;;;;;;7.48;90.40;101275.75;6239058;23;20000;-85
2023/03/29 07:21:23;;;;;;;7.60;4.90;;;;;;;7.50;90.73;101275.69;6237970;23;20007;-86
2023/03/29 07:23:48;;;;;;;8.68;5.55;;;;;;;7.49;90.99;101266.88;6209818;23;20008;-90
2023/03/29 07:26:14;;;;;;;8.38;5.20;;;;;;;7.59;90.63;101278.03;6212127;23;20004;-89
2023/03/29 07:28:40;;;;;;;8.88;5.03;;;;;;;7.61;90.28;101278.88;6239372;23;20354;-91
2023/03/29 07:31:09;;;;;;;7.07;5.18;;;;;;;7.72;90.27;101294.41;6241033;23;20031;-90
2023/03/29 07:33:35;;;;;;;6.93;4.80;;;;;;;7.76;90.12;101292.53;6213196;23;20087;-87
2023/03/29 07:36:00;;;;;;;10.48;5.72;;;;;;;7.81;90.69;101298.53;6238910;23;20077;-88
2023/03/29 07:38:26;;;;;;;8.60;6.22;;;;;;;7.71;90.72;101287.38;6237187;23;20330;-88
2023/03/29 07:40:53;;;;;;;9.38;5.97;;;;;;;7.79;90.85;101305.69;6239676;23;20008;-88
2023/03/29 07:43:18;;;;;;;9.40;5.30;;;;;;;7.82;91.10;101305.59;6213055;23;20004;-88
2023/03/29 07:45:43;;;;;;;9.45;5.45;;;;;;;7.76;91.17;101290.75;6238816;23;20042;-88
2023/03/29 07:48:09;;;;;;;7.28;5.07;;;;;;;7.83;91.61;101312.63;6239352;23;20003;-88
2023/03/29 07:50:35;;;;;;;8.23;5.65;;;;;;;7.82;93.72;101319.72;6253273;23;20030;-88
2023/03/29 07:53:01;;;;;;;9.07;5.72;;;;;;;7.73;95.19;101320.88;6267781;22;20007;-87
2023/03/29 07:55:27;;;;;;;12.20;6.88;;;;;;;7.55;96.02;101302.88;6267539;23;20004;-88
2023/03/29 07:57:52;;;;;;;8.73;5.95;;;;;;;7.62;97.40;101322.97;6241146;23;20046;-88
2023/03/29 08:00:18;;;;;;;9.90;6.18;;;;;;;7.65;97.63;101319.34;6265929;23;20015;-88
2023/03/29 08:02:49;;;;;;;9.57;6.43;;;;;;;7.58;98.43;101312.53;6267634;22;20004;-88
2023/03/29 08:05:16;;;;;;;11.02;7.47;;;;;;;7.60;100.00;101329.22;6241188;22;19991;-89
2023/03/29 08:07:43;;;;;;;8.75;6.75;;;;;;;7.55;100.00;101326.72;6244164;23;20318;-88
2023/03/29 08:10:10;;;;;;;8.90;6.72;;;;;;;7.66;100.00;101332.56;6240129;23;20015;-87
2023/03/29 08:12:36;;;;;;;9.82;7.07;;;;;;;7.66;100.00;101315.81;6225086;22;20108;-88
2023/03/29 08:15:04;;;;;;;11.23;7.07;;;;;;;7.76;100.00;101319.88;6211597;23;20024;-87
2023/03/29 08:17:30;;;;;;;11.00;7.00;;;;;;;7.75;100.00;101320.81;6211692;23;20080;-87
2023/03/29 08:19:55;;;;;;;8.50;6.78;;;;;;;7.76;100.00;101311.94;6211507;23;20032;-88
2023/03/29 08:22:20;;;;;;;11.65;7.43;;;;;;;7.87;100.00;101315.13;6210772;23;20004;-87
2023/03/29 08:24:46;;;;;;;12.15;7.43;;;;;;;7.93;100.00;101314.91;6209693;23;20050;-87
2023/03/29 08:27:11;;;;;;;10.48;7.07;;;;;;;7.99;100.00;101309.44;6182952;23;20040;-87
2023/03/29 08:29:37;;;;;;;9.80;6.55;;;;;;;8.05;100.00;101316.31;6206457;23;20008;-89
2023/03/29 08:32:03;;;;;;;9.57;7.15;;;;;;;8.07;100.00;101319.78;6210419;23;20064;-87
2023/03/29 08:34:30;;;;;;;12.48;7.70;;;;;;;8.03;100.00;101307.56;6209600;23;20454;-84
2023/03/29 08:36:56;;;;;;;9.88;6.82;;;;;;;7.92;100.00;101291.97;6210564;23;20128;-85
2023/03/29 08:39:21;;;;;;;11.35;7.65;;;;;;;7.91;100.00;101311.47;6205862;23;20068;-88
2023/03/29 08:42:11;;;;;;;11.10;7.38;;;;;;;7.88;100.00;101308.03;6180261;23;20054;-85
2023/03/29 08:45:15;;;;;;;11.90;8.10;;;;;;;7.82;100.00;101295.88;6205452;23;20005;-86
2023/03/29 08:48:07;;;;;;;9.93;7.85;;;;;;;7.67;100.00;101283.09;6181454;23;20009;-89
2023/03/29 08:50:36;;;;;;;14.48;8.50;;;;;;;7.78;100.00;101296.88;6182683;23;20062;-88
2023/03/29 08:53:14;;;;;;;11.50;8.23;;;;;;;7.80;100.00;101292.38;6207008;23;20043;-90
2023/03/29 08:55:42;;;;;;;11.63;8.43;;;;;;;7.96;100.00;101298.91;6208859;23;20012;-88
2023/03/29 08:58:14;;;;;;;10.55;8.07;;;;;;;7.94;100.00;101281.31;6205864;23;20414;-85
2023/03/29 09:00:47;;;;;;;12.50;8.43;;;;;;;8.12;100.00;101301.06;6205985;23;20278;-88
2023/03/29 09:03:41;;;;;;;12.23;8.60;;;;;;;8.21;100.00;101282.19;6206456;23;20008;-88
2023/03/29 09:06:09;;;;;;;11.45;8.05;;;;;;;8.47;100.00;101299.88;6206856;23;20015;-91
2023/03/29 09:08:39;;;;;;;12.88;9.40;;;;;;;8.63;100.00;101292.25;6204411;23;20037;-87
2023/03/29 09:11:23;;;;;;;13.85;9.35;;;;;;;9.05;100.00;101286.31;6180063;23;20071;-85
2023/03/29 09:14:00;;;;;;;;;;;;;;;9.51;100.00;101290.72;6205551;23;20016;-87
2023/03/29 09:17:14;;;;;;;15.80;9.05;;;;;;;9.87;100.00;101293.72;6177916;23;19935;-89
2023/03/29 09:20:12;;;;;;;10.50;8.00;;;;;;;10.08;100.00;101299.09;6084083;23;20057;-87
2023/03/29 09:22:59;;;;;;;11.73;7.65;;;;;;;10.16;100.00;101302.28;6083490;23;20022;-85
2023/03/29 09:25:31;;;;;;;10.20;7.22;;;;;;;9.92;100.00;101293.53;6084762;23;20421;-90
2023/03/29 09:28:02;;;;;;;9.90;7.45;;;;;;;9.74;100.00;101284.50;6058979;23;20472;-89
2023/03/29 09:30:41;;;;;;;9.73;7.15;;;;;;;9.70;100.00;101269.59;6083631;23;20480;-88
2023/03/29 09:33:06;;;;;;;11.00;7.32;;;;;;;9.91;100.00;101281.16;6083622;23;20275;-86
2023/03/29 09:36:10;;;;;;;12.50;7.03;;;;;;;10.08;100.00;101291.09;6084007;23;20021;-90
2023/03/29 09:38:41;;;;;;;11.68;7.28;;;;;;;10.01;99.55;101292.28;6082518;23;20006;-90
2023/03/29 09:41:32;;;;;;;11.73;7.15;;;;;;;9.86;100.00;101294.63;6083106;23;20019;-91
2023/03/29 09:44:04;;;;;;;13.43;7.57;;;;;;;9.48;100.00;101296.16;6085309;23;20013;-88
2023/03/29 09:46:39;;;;;;;11.57;7.35;;;;;;;9.30;100.00;101300.38;6082667;23;20147;-88
2023/03/29 09:49:11;;;;;;;11.88;7.25;;;;;;;9.02;100.00;101294.38;6082584;23;20491;-89
2023/03/29 09:51:38;;;;;;;13.73;8.45;;;;;;;8.85;100.00;101293.22;6083552;23;20468;-88
2023/03/29 09:54:04;;;;;;;13.88;8.25;;;;;;;8.77;100.00;101292.63;6059026;23;20679;-89
2023/03/29 09:56:33;;;;;;;14.15;7.90;;;;;;;8.73;100.00;101285.69;6179441;23;20012;-91
2023/03/29 09:58:58;;;;;;;13.13;8.45;;;;;;;8.82;100.00;101285.38;6204449;23;20023;-91
2023/03/29 10:01:35;;;;;;;14.82;9.55;;;;;;;8.89;100.00;101278.91;6206036;23;20009;-87
2023/03/29 10:04:05;;;;;;;12.65;7.68;;;;;;;8.95;100.00;101273.38;6209012;23;20465;-91
2023/03/29 10:06:31;;;;;;;11.70;8.80;;;;;;;9.18;100.00;101285.78;6214542;23;20060;-95
2023/03/29 10:09:03;;;;;;;11.95;8.30;;;;;;;9.44;100.00;101299.84;6190809;23;20461;-95
2023/03/29 10:11:29;;;;;;;15.02;9.43;;;;;;;9.49;100.00;101287.28;6210549;23;20004;-91
2023/03/29 10:14:00;;;;;;;13.50;8.60;;;;;;;9.69;100.00;101295.28;6207597;23;20043;-92
2023/03/29 10:16:37;;;;;;;10.90;8.18;;;;;;;10.59;100.00;101288.03;6178241;23;20011;-92
2023/03/29 11:34:20;;;;;;;6.70;5.55;;;;;;;17.58;63.88;101221.06;6253239;22;20110;-91
2023/03/29 11:37:26;;;;;;;6.90;5.40;;;;;;;16.50;64.35;101173.28;6239670;23;20019;-92
2023/03/29 11:40:34;;;;;;;9.43;5.68;;;;;;;16.55;66.48;101214.97;6238412;23;20004;-92
2023/03/29 14:29:12;;;;;;;6.72;3.38;;;;;;;15.62;66.95;101030.81;6279230;22;20028;-89
2023/03/29 14:31:52;;;;;;;5.47;3.42;;;;;;;15.39;67.41;100993.03;6274096;22;20012;-88
2023/03/29 14:34:18;;;;;;;4.53;3.45;;;;;;;15.65;67.64;101028.81;6267640;22;20011;-89
2023/03/29 14:36:45;;;;;;;5.38;3.40;;;;;;;15.34;68.59;100981.78;6244558;22;20014;-86
2023/03/29 14:39:20;;;;;;;5.07;3.47;;;;;;;15.35;68.53;100972.75;6266238;22;20024;-93
2023/03/29 14:42:14;;;;;;;6.15;3.33;;;;;;;15.51;68.72;100985.09;6280782;22;19984;-93
2023/03/29 14:44:43;;;;;;;7.45;3.85;;;;;;;15.56;68.56;100999.06;6272314;22;20026;-95
2023/03/29 14:47:50;;;;;;;4.20;2.80;;;;;;;15.51;68.74;100985.97;6269550;22;20330;-93
2023/03/29 14:50:46;;;;;;;3.50;2.60;;;;;;;15.78;69.14;101003.81;6143792;23;20448;-94
2023/03/29 14:53:23;;;;;;;3.33;2.75;;;;;;;15.42;69.58;100955.28;6142902;23;20340;-91
2023/03/29 14:55:57;;;;;;;4.38;2.38;;;;;;;15.66;69.67;100990.28;6144613;23;20195;-95
2023/03/29 14:58:30;;;;;;;3.20;2.55;;;;;;;15.57;69.34;100939.06;6142841;23;20028;-88
2023/03/29 15:00:55;;;;;;;4.78;2.33;;;;;;;15.80;68.55;100945.50;6140706;23;20039;-87
2023/03/29 15:03:27;;;;;;;3.22;2.40;;;;;;;16.01;69.02;100964.59;6141750;23;20014;-87
2023/03/29 15:05:59;;;;;;;4.68;2.30;;;;;;;16.01;68.25;100968.16;6142158;23;20041;-89
2023/03/29 15:08:36;;;;;;;3.22;2.35;;;;;;;16.06;68.19;100962.47;6141290;23;20401;-89
2023/03/29 15:11:10;;;;;;;4.07;2.25;;;;;;;15.97;68.54;100949.66;6142878;23;20013;-86
2023/03/29 15:13:39;;;;;;;5.57;2.88;;;;;;;16.10;68.41;100954.06;6143259;23;20017;-87
2023/03/29 15:16:05;;;;;;;2.65;2.28;;;;;;;16.17;68.07;100952.63;6119065;23;20105;-87
2023/03/29 15:18:38;;;;;;;3.50;2.50;;;;;;;16.18;68.23;100958.91;6147115;23;20037;-89
2023/03/29 15:21:05;;;;;;;4.53;2.30;;;;;;;16.10;68.88;100950.53;6120432;23;20043;-87
2023/03/29 15:23:36;;;;;;;3.47;2.58;;;;;;;16.04;69.21;100951.81;6143260;23;20032;-88
2023/03/29 15:26:33;;;;;;;4.32;2.42;;;;;;;16.11;68.85;100952.25;6171716;22;20008;-93
2023/03/29 15:29:07;;;;;;;5.32;2.60;;;;;;;15.81;70.28;100939.19;6259449;22;20258;-86
2023/03/29 15:31:36;;;;;;;4.13;2.50;;;;;;;15.66;70.28;100928.56;6211133;23;20015;-88
2023/03/29 15:34:13;;;;;;;3.92;2.60;;;;;;;15.61;71.09;100940.56;6209935;23;20065;-93
2023/03/29 15:36:41;;;;;;;4.43;2.97;;;;;;;15.49;71.07;100928.88;6210294;23;20016;-88
2023/03/29 15:39:14;;;;;;;3.92;3.00;;;;;;;15.40;72.49;100934.88;6217327;23;20022;-89
2023/03/29 15:41:41;;;;;;;;;;;;;;;15.48;72.28;100937.03;6208386;23;20245;-86
2023/03/29 15:44:07;;;;;;;2.70;2.38;;;;;;;15.27;74.08;100929.50;6237191;23;20245;-91